Addis, LA (70710)

11:20 AM CDT on August 30, 2015 (GMT -0500)
Iberville Parish Courthouse | | Change Station
CLOSE
Current Station
Personal Weather Station
Location: Plaquemine, LA
Elevation: 30 ft
Nearby Weather Stations

Elev 30 ft 30.29 °N, 91.24 °W | Updated 30 seconds ago

Clear
Clear
84.9 °F
Feels Like 88 °F
N
4.7
Wind Variable Wind from East
Gusts 6.0 mph

Today
High -- | Low -- °F
--% Chance of Precip.
Yesterday
High -- | Low -- °F
Precip. -- in
6:40 AM 7:30 PM
Full, 99% visible
Pressure 30.06 in
Visibility 10.0 miles
Clouds Few 4000 ft
Heat Index 88 °F
Dew Point 68 °F
Humidity 57%
Rainfall 0.00 in
Snow Depth Not available.
UV 8 out of 12
Pollen 7.80 out of 12
Air Quality Not available.
Flu Activity Not available.
METAR KBTR 301553Z 00000KT 10SM FEW040 31/19 A3007 RMK AO2 SLP179 T03060194
Pressure 30.06 in
Visibility 10.0 miles
Clouds Few 4000 ft
Heat Index 88 °F
Dew Point 68 °F
Humidity 57%
Rainfall 0.00 in
Snow Depth Not available.
UV 8 out of 12
Pollen 7.80 out of 12
Air Quality Not available.
Flu Activity Not available.
METAR KBTR 301553Z 00000KT 10SM FEW040 31/19 A3007 RMK AO2 SLP179 T03060194

10-Day Weather Forecast

×

Almanac

Astronomy

Aug. 30, 2015 Rise Set
Actual Time
Civil Twilight
Nautical Twilight
Astronomical Twilight
Moon
Length of Visible Light
Length of Day
Tomorrow will be .
, % of the Moon is Illuminated

Today's Extremes

State Highs State Lows

Community

WunderPhotos

Upload Photos

1,851,005 photos uploaded!

WunderBlogs® & News

Nearby

Air Quality

  Air Quality AQ Index Pollutant
Not available.

Snow Depth

Station Depth Elevation

Earthquake Activity

City Distance Mag. Time & Date
Minimum magnitude displayed is 2.5.

Coastal Water Temperatures

Place Temperature

Stations

Nearby Weather Stations

Station Location Temp. Windchill Dew Point Humidity Wind Precip. Elev Updated Type